createdAt,value
2023-04-02T00:02:23.382Z,7.95
2023-04-02T00:05:19.767Z,7.95
2023-04-02T00:07:50.779Z,7.96
2023-04-02T00:10:28.052Z,7.99
2023-04-02T00:13:09.868Z,8.03
2023-04-02T00:15:40.924Z,8.06
2023-04-02T00:18:07.990Z,8.05
2023-04-02T00:20:38.596Z,8.05
2023-04-02T00:23:05.250Z,8.07
2023-04-02T00:25:36.162Z,8.09
2023-04-02T00:28:03.819Z,8.07
2023-04-02T00:30:30.421Z,8.03
2023-04-02T00:32:57.936Z,8.03
2023-04-02T00:35:29.065Z,8.00
2023-04-02T00:37:56.757Z,7.97
2023-04-02T00:40:27.941Z,7.94
2023-04-02T00:42:56.002Z,7.94
2023-04-02T00:45:25.427Z,7.93
2023-04-02T00:47:52.488Z,7.92
2023-04-02T00:50:23.550Z,7.93
2023-04-02T00:52:51.187Z,7.95
2023-04-02T00:55:39.061Z,7.91
2023-04-02T00:58:15.693Z,7.91
2023-04-02T01:00:48.588Z,7.91
2023-04-02T01:03:18.176Z,7.91
2023-04-02T01:06:11.015Z,7.91
2023-04-02T01:08:37.564Z,7.91
2023-04-02T01:11:10.216Z,7.92
2023-04-02T01:13:39.729Z,7.92
2023-04-02T01:16:42.374Z,7.93
2023-04-02T01:19:19.862Z,7.93
2023-04-02T01:21:53.946Z,7.93
2023-04-02T01:24:21.274Z,7.94
2023-04-02T01:26:58.791Z,7.94
2023-04-02T01:29:31.253Z,7.92
2023-04-02T01:32:02.571Z,7.89
2023-04-02T01:34:30.987Z,7.92
2023-04-02T01:36:57.401Z,7.94
2023-04-02T01:39:42.789Z,7.93
2023-04-02T01:42:17.192Z,7.93
2023-04-02T01:44:46.567Z,7.93
2023-04-02T01:47:14.847Z,7.95
2023-04-02T01:49:44.916Z,7.95
2023-04-02T01:52:19.405Z,7.95
2023-04-02T01:54:47.475Z,7.98
2023-04-02T01:57:14.363Z,8.01
2023-04-02T01:59:41.239Z,8.00
2023-04-02T02:02:11.841Z,7.99
2023-04-02T02:04:39.346Z,8.01
2023-04-02T02:07:06.135Z,8.00
2023-04-02T02:09:35.948Z,8.02
2023-04-02T02:12:03.433Z,8.01
2023-04-02T02:14:30.907Z,8.00
2023-04-02T02:17:02.042Z,7.97
2023-04-02T02:19:44.035Z,7.99
2023-04-02T02:22:10.627Z,8.00
2023-04-02T02:24:37.341Z,8.00
2023-04-02T02:27:07.005Z,8.00
2023-04-02T02:29:36.253Z,8.01
2023-04-02T02:32:04.160Z,8.01
2023-04-02T02:34:35.248Z,7.96
2023-04-02T02:37:08.116Z,7.90
2023-04-02T02:39:37.441Z,7.92
2023-04-02T02:42:09.980Z,7.94
2023-04-02T02:44:37.909Z,7.96
2023-04-02T02:47:06.943Z,8.00
2023-04-02T02:49:38.643Z,7.99
2023-04-02T02:52:14.192Z,8.00
2023-04-02T02:54:43.766Z,8.01
2023-04-02T02:57:12.745Z,8.02
2023-04-02T02:59:39.324Z,8.02
2023-04-02T03:02:07.329Z,8.01
2023-04-02T03:04:37.468Z,8.01
2023-04-02T03:07:06.139Z,8.01
2023-04-02T03:09:44.755Z,8.02
2023-04-02T03:12:26.435Z,8.02
2023-04-02T03:15:01.154Z,8.03
2023-04-02T03:17:40.939Z,8.04
2023-04-02T03:20:14.680Z,8.05
2023-04-02T03:22:58.549Z,8.04
2023-04-02T03:25:27.894Z,8.06
2023-04-02T03:27:58.373Z,8.06
2023-04-02T03:30:30.850Z,8.04
2023-04-02T03:33:11.940Z,7.91
2023-04-02T03:35:43.173Z,7.90
2023-04-02T03:38:22.892Z,7.95
2023-04-02T03:40:59.153Z,7.98
2023-04-02T03:43:27.159Z,7.96
2023-04-02T03:45:58.004Z,7.92
2023-04-02T03:48:27.980Z,7.86
2023-04-02T03:51:05.479Z,7.89
2023-04-02T03:53:32.497Z,7.94
2023-04-02T03:55:59.376Z,7.97
2023-04-02T03:58:34.969Z,8.00
2023-04-02T04:01:08.925Z,8.00
2023-04-02T04:03:46.619Z,8.02
2023-04-02T04:06:21.276Z,8.00
2023-04-02T04:08:54.753Z,7.92
2023-04-02T04:11:36.107Z,7.93
2023-04-02T04:14:02.548Z,7.97
2023-04-02T04:16:55.590Z,7.96
2023-04-02T04:19:29.140Z,7.97
2023-04-02T04:22:08.903Z,7.99
2023-04-02T04:24:39.346Z,8.02
2023-04-02T04:27:35.048Z,8.00
2023-04-02T04:30:10.410Z,8.00
2023-04-02T04:32:39.131Z,7.99
2023-04-02T04:35:19.040Z,7.98
2023-04-02T04:37:49.745Z,7.99
2023-04-02T04:40:18.913Z,8.03
2023-04-02T04:42:45.852Z,8.04
2023-04-02T04:45:31.221Z,8.04
2023-04-02T04:48:00.040Z,8.08
2023-04-02T04:50:33.943Z,8.10
2023-04-02T04:53:15.450Z,8.10
2023-04-02T04:55:47.134Z,8.05
2023-04-02T04:58:32.349Z,8.01
2023-04-02T05:00:58.764Z,8.03
2023-04-02T05:03:34.384Z,8.09
2023-04-02T05:06:03.681Z,8.13
2023-04-02T05:08:32.545Z,8.15
2023-04-02T05:11:02.262Z,8.17
2023-04-02T05:13:44.719Z,8.17
2023-04-02T05:16:16.478Z,8.18
2023-04-02T05:18:59.242Z,8.19
2023-04-02T05:21:49.114Z,8.14
2023-04-02T05:24:39.329Z,8.11
2023-04-02T05:27:13.282Z,8.15
2023-04-02T05:29:42.381Z,8.17
2023-04-02T05:32:11.957Z,8.21
2023-04-02T05:34:39.754Z,8.19
2023-04-02T05:37:09.175Z,8.17
2023-04-02T05:39:35.700Z,8.14
2023-04-02T05:42:07.469Z,8.11
2023-04-02T05:44:38.992Z,8.10
2023-04-02T05:47:40.807Z,8.12
2023-04-02T05:50:07.690Z,8.18
2023-04-02T05:52:37.722Z,8.20
2023-04-02T05:55:13.404Z,8.22
2023-04-02T05:58:21.461Z,8.19
2023-04-02T06:00:52.164Z,8.16
2023-04-02T06:03:32.385Z,8.17
2023-04-02T06:06:02.910Z,8.18
2023-04-02T06:08:41.685Z,8.19
2023-04-02T06:11:11.221Z,8.23
2023-04-02T06:13:38.103Z,8.27
2023-04-02T06:16:04.689Z,8.22
2023-04-02T06:18:33.493Z,8.23
2023-04-02T06:21:00.793Z,8.26
2023-04-02T06:23:38.060Z,8.28
2023-04-02T06:26:07.271Z,8.22
2023-04-02T06:28:43.174Z,8.19
2023-04-02T06:31:14.574Z,8.21
2023-04-02T06:33:41.056Z,8.23
2023-04-02T06:36:08.556Z,8.23
2023-04-02T06:38:35.792Z,8.27
2023-04-02T06:41:05.644Z,8.28
2023-04-02T06:43:38.969Z,8.32
2023-04-02T06:46:09.432Z,8.33
2023-04-02T06:48:37.177Z,8.31
2023-04-02T06:51:07.262Z,8.30
2023-04-02T06:53:39.019Z,8.30
2023-04-02T06:56:08.317Z,8.31
2023-04-02T06:58:34.781Z,8.31
2023-04-02T07:01:01.455Z,8.34
2023-04-02T07:03:29.234Z,8.37
2023-04-02T07:05:56.319Z,8.42
2023-04-02T07:08:23.368Z,8.40
2023-04-02T07:10:50.058Z,8.39
2023-04-02T07:13:18.196Z,8.42
2023-04-02T07:15:45.783Z,8.42
2023-04-02T07:18:23.288Z,8.42
2023-04-02T07:20:50.660Z,8.48
2023-04-02T07:23:18.509Z,8.41
2023-04-02T07:25:44.928Z,8.46
2023-04-02T07:28:12.237Z,8.40
2023-04-02T07:30:38.881Z,8.43
2023-04-02T07:33:05.670Z,8.49
2023-04-02T07:35:32.253Z,8.57
2023-04-02T07:37:58.784Z,8.65
2023-04-02T07:40:25.347Z,8.65
2023-04-02T07:42:51.859Z,8.67
2023-04-02T07:45:18.360Z,8.75
2023-04-02T07:47:44.886Z,8.77
2023-04-02T07:50:11.461Z,8.74
2023-04-02T07:52:44.931Z,8.66
2023-04-02T07:55:12.771Z,8.59
2023-04-02T07:57:52.775Z,8.59
2023-04-02T08:00:19.356Z,8.55
2023-04-02T08:02:45.942Z,8.56
2023-04-02T08:05:12.636Z,8.50
2023-04-02T08:07:39.483Z,8.46
2023-04-02T08:10:07.029Z,8.41
2023-04-02T08:12:33.482Z,8.41
2023-04-02T08:15:00.051Z,8.46
2023-04-02T08:17:31.309Z,8.53
2023-04-02T08:20:01.068Z,8.65
2023-04-02T08:22:28.630Z,8.66
2023-04-02T08:24:56.386Z,8.63
2023-04-02T08:27:25.940Z,8.57
2023-04-02T08:29:52.432Z,8.51
2023-04-02T08:32:18.871Z,8.52
2023-04-02T08:34:45.848Z,8.53
2023-04-02T08:37:12.902Z,8.61
2023-04-02T08:39:39.919Z,8.68
2023-04-02T08:42:16.536Z,8.71
2023-04-02T08:44:54.940Z,8.75
2023-04-02T08:47:25.882Z,8.73
2023-04-02T08:49:55.414Z,8.78
2023-04-02T08:52:26.699Z,8.88
2023-04-02T08:54:53.668Z,8.92
2023-04-02T08:57:23.001Z,9.02
2023-04-02T08:59:52.937Z,9.03
2023-04-02T09:02:29.212Z,9.08
2023-04-02T09:04:59.981Z,9.08
2023-04-02T09:07:27.030Z,9.08
2023-04-02T09:09:53.541Z,9.05
2023-04-02T09:12:41.899Z,9.09
2023-04-02T09:15:18.583Z,9.04
2023-04-02T09:17:53.738Z,9.12
2023-04-02T09:20:26.301Z,9.18
2023-04-02T09:22:54.283Z,9.23
2023-04-02T09:25:22.688Z,9.26
2023-04-02T09:27:50.302Z,9.28
2023-04-02T09:30:31.943Z,9.33
2023-04-02T09:33:02.104Z,9.32
2023-04-02T09:35:29.872Z,9.36
2023-04-02T09:38:14.933Z,9.39
2023-04-02T09:40:50.643Z,9.41
2023-04-02T09:43:21.720Z,9.47
2023-04-02T09:46:02.412Z,9.55
2023-04-02T09:48:33.917Z,9.59
2023-04-02T09:51:11.380Z,9.65
2023-04-02T09:53:56.668Z,9.69
2023-04-02T09:56:24.337Z,9.73
2023-04-02T09:59:03.194Z,9.82
2023-04-02T10:01:34.140Z,9.91
2023-04-02T10:04:02.181Z,9.93
2023-04-02T10:06:29.336Z,9.92
2023-04-02T10:08:56.214Z,9.95
2023-04-02T10:11:22.992Z,9.97
2023-04-02T10:13:56.648Z,9.96
2023-04-02T10:16:27.235Z,9.95
2023-04-02T10:19:02.677Z,9.92
2023-04-02T10:21:32.356Z,9.75
2023-04-02T10:23:59.708Z,9.64
2023-04-02T10:26:27.240Z,9.56
2023-04-02T10:29:04.429Z,9.54
2023-04-02T10:31:50.208Z,9.64
2023-04-02T10:34:43.363Z,9.79
2023-04-02T10:37:16.070Z,9.86
2023-04-02T10:39:50.031Z,9.75
2023-04-02T10:42:16.567Z,9.60
2023-04-02T10:44:42.980Z,9.56
2023-04-02T10:47:16.204Z,9.59
2023-04-02T10:50:04.381Z,9.64
2023-04-02T10:52:35.068Z,9.69
2023-04-02T10:55:04.020Z,9.68
2023-04-02T10:57:30.639Z,9.80
2023-04-02T11:00:22.145Z,9.92
2023-04-02T11:02:51.692Z,10.01
2023-04-02T11:05:25.413Z,10.03
2023-04-02T11:07:55.176Z,10.09
2023-04-02T11:10:21.697Z,10.10
2023-04-02T11:12:55.091Z,9.99
2023-04-02T11:15:22.162Z,9.77
2023-04-02T11:17:48.798Z,9.63
2023-04-02T11:20:34.130Z,9.54
2023-04-02T11:23:13.771Z,9.54
2023-04-02T11:25:41.506Z,9.45
2023-04-02T11:28:18.664Z,9.32
2023-04-02T11:30:47.300Z,9.30
2023-04-02T11:33:43.150Z,9.28
2023-04-02T11:36:30.210Z,9.35
2023-04-02T11:39:04.500Z,9.41
2023-04-02T11:41:57.659Z,9.48
2023-04-02T11:44:24.610Z,9.56
2023-04-02T11:46:51.647Z,9.67
2023-04-02T11:49:39.674Z,9.69
2023-04-02T11:52:19.738Z,9.73
2023-04-02T11:54:47.908Z,9.67
2023-04-02T11:57:25.305Z,9.64
2023-04-02T11:59:57.852Z,9.66
2023-04-02T12:02:28.758Z,9.68
2023-04-02T12:05:19.481Z,9.63
2023-04-02T12:07:46.752Z,9.60
2023-04-02T12:10:17.520Z,9.60
2023-04-02T12:12:44.127Z,9.44
2023-04-02T12:15:29.121Z,9.26
2023-04-02T12:18:06.559Z,9.01
2023-04-02T12:20:34.249Z,8.88
2023-04-02T12:23:01.247Z,8.79
2023-04-02T12:25:31.635Z,8.72
2023-04-02T12:28:04.170Z,8.67
2023-04-02T12:30:30.606Z,8.64
2023-04-02T12:32:57.413Z,8.60
2023-04-02T12:35:32.524Z,8.56
2023-04-02T12:37:59.065Z,8.53
2023-04-02T12:40:28.925Z,8.48
2023-04-02T12:42:55.492Z,8.29
2023-04-02T12:45:36.830Z,8.22
2023-04-02T12:48:06.086Z,8.18
2023-04-02T12:50:34.092Z,8.11
2023-04-02T12:53:01.370Z,7.95
2023-04-02T12:55:27.992Z,7.93
2023-04-02T12:57:58.278Z,7.92
2023-04-02T13:00:27.950Z,7.91
2023-04-02T13:03:01.183Z,7.80
2023-04-02T13:05:35.485Z,7.72
2023-04-02T13:08:02.120Z,7.73
2023-04-02T13:10:28.727Z,7.62
2023-04-02T13:12:56.605Z,7.57
2023-04-02T13:15:29.125Z,7.53
2023-04-02T13:18:19.233Z,7.39
2023-04-02T13:20:59.773Z,7.30
2023-04-02T13:23:29.184Z,7.32
2023-04-02T13:25:56.145Z,7.38
2023-04-02T13:28:23.002Z,7.47
2023-04-02T13:30:49.519Z,7.57
2023-04-02T13:33:16.711Z,7.43
2023-04-02T13:35:43.915Z,7.34
2023-04-02T13:38:10.416Z,7.30
2023-04-02T13:40:37.592Z,7.21
2023-04-02T13:43:05.141Z,6.95
2023-04-02T13:45:36.713Z,6.89
2023-04-02T13:48:03.674Z,6.98
2023-04-02T13:50:31.201Z,6.82
2023-04-02T13:52:58.850Z,6.72
2023-04-02T13:55:27.916Z,6.65
2023-04-02T13:57:55.479Z,6.64
2023-04-02T14:00:22.036Z,6.62
2023-04-02T14:02:51.831Z,6.47
2023-04-02T14:05:30.524Z,6.38
2023-04-02T14:07:56.973Z,6.43
2023-04-02T14:10:30.480Z,6.50
2023-04-02T14:12:57.346Z,6.55
2023-04-02T14:15:44.854Z,6.52
2023-04-02T14:18:14.413Z,6.33
2023-04-02T14:20:59.645Z,6.30
2023-04-02T14:23:33.182Z,6.15
2023-04-02T14:26:06.177Z,6.03
2023-04-02T14:28:57.718Z,6.04
2023-04-02T14:31:31.703Z,6.03
2023-04-02T14:34:03.654Z,5.94
2023-04-02T14:36:49.872Z,5.84
2023-04-02T14:39:16.320Z,5.66
2023-04-02T14:41:47.224Z,5.63
2023-04-02T14:44:15.390Z,5.56
2023-04-02T14:46:42.494Z,5.50
2023-04-02T14:49:08.973Z,5.52
2023-04-02T14:51:43.474Z,5.46
2023-04-02T14:54:12.778Z,5.48
2023-04-02T14:56:44.651Z,5.47
2023-04-02T14:59:11.553Z,5.47
2023-04-02T15:01:40.909Z,5.41
2023-04-02T15:04:12.047Z,5.44
2023-04-02T15:06:41.765Z,5.50
2023-04-02T15:09:16.299Z,5.57
2023-04-02T15:11:46.541Z,5.46
2023-04-02T15:14:33.200Z,5.49
2023-04-02T15:16:59.756Z,5.43
2023-04-02T15:19:26.260Z,5.39
2023-04-02T15:22:02.159Z,5.33
2023-04-02T15:24:32.526Z,5.25
2023-04-02T15:27:31.573Z,5.23
2023-04-02T15:30:00.831Z,5.17
2023-04-02T15:32:30.519Z,5.19
2023-04-02T15:34:59.948Z,5.21
2023-04-02T15:37:44.090Z,5.17
2023-04-02T15:40:29.253Z,5.18
2023-04-02T15:43:14.568Z,5.28
2023-04-02T15:45:41.131Z,5.28
2023-04-02T15:48:16.450Z,5.19
2023-04-02T15:50:58.800Z,5.14
2023-04-02T15:53:31.204Z,5.11
2023-04-02T15:56:08.671Z,5.16
2023-04-02T15:58:56.832Z,5.17
2023-04-02T16:01:23.357Z,5.21
2023-04-02T16:04:01.989Z,5.15
2023-04-02T16:06:40.450Z,5.19
2023-04-02T16:09:23.289Z,4.97
2023-04-02T16:11:56.661Z,4.89
2023-04-02T16:14:30.342Z,4.86
2023-04-02T16:17:10.909Z,4.88
2023-04-02T16:19:56.941Z,4.93
2023-04-02T16:22:26.710Z,4.97
2023-04-02T16:25:06.931Z,5.01
2023-04-02T16:27:36.720Z,4.99
2023-04-02T16:30:06.541Z,4.93
2023-04-02T16:32:42.106Z,4.86
2023-04-02T16:35:41.691Z,4.87
2023-04-02T16:38:27.576Z,5.01
2023-04-02T16:41:07.763Z,5.00
2023-04-02T16:43:38.055Z,4.99
2023-04-02T16:46:36.343Z,4.90
2023-04-02T16:49:25.357Z,4.92
2023-04-02T16:52:01.133Z,4.86
2023-04-02T16:54:36.079Z,4.80
2023-04-02T16:57:17.355Z,4.82
2023-04-02T16:59:50.808Z,4.89
2023-04-02T17:02:36.230Z,4.97
2023-04-02T17:05:14.855Z,4.97
2023-04-02T17:07:46.223Z,4.93
2023-04-02T17:10:12.763Z,4.97
2023-04-02T17:12:41.954Z,4.89
2023-04-02T17:15:27.776Z,4.87
2023-04-02T17:17:57.349Z,5.02
2023-04-02T17:20:25.970Z,5.08
2023-04-02T17:22:53.364Z,5.14
2023-04-02T17:25:25.420Z,5.20
2023-04-02T17:27:54.221Z,5.18
2023-04-02T17:30:29.696Z,5.21
2023-04-02T17:32:56.199Z,5.19
2023-04-02T17:35:26.838Z,5.12
2023-04-02T17:38:04.610Z,5.01
2023-04-02T17:40:48.617Z,4.87
2023-04-02T17:43:15.537Z,4.88
2023-04-02T17:45:47.185Z,4.87
2023-04-02T17:48:13.851Z,4.83
2023-04-02T17:50:43.725Z,4.79
2023-04-02T17:53:19.065Z,4.77
2023-04-02T17:56:04.267Z,4.77
2023-04-02T17:58:48.177Z,4.79
2023-04-02T18:01:17.400Z,4.83
2023-04-02T18:04:02.089Z,4.88
2023-04-02T18:06:39.574Z,4.92
2023-04-02T18:09:11.778Z,4.92
2023-04-02T18:11:54.927Z,4.87
2023-04-02T18:14:47.837Z,4.81
2023-04-02T18:17:22.076Z,4.87
2023-04-02T18:19:51.800Z,4.81
2023-04-02T18:22:23.134Z,4.87
2023-04-02T18:25:08.489Z,4.93
2023-04-02T18:27:37.654Z,4.96
2023-04-02T18:30:23.021Z,5.01
2023-04-02T18:32:49.555Z,5.06
2023-04-02T18:35:26.938Z,5.02
2023-04-02T18:37:56.224Z,4.93
2023-04-02T18:40:22.841Z,4.85
2023-04-02T18:42:52.495Z,4.75
2023-04-02T18:45:33.572Z,4.68
2023-04-02T18:48:11.578Z,4.73
2023-04-02T18:50:45.960Z,4.75
2023-04-02T18:53:13.970Z,4.75
2023-04-02T18:55:46.607Z,4.82
2023-04-02T18:58:15.950Z,4.86
2023-04-02T19:00:44.479Z,4.74
2023-04-02T19:03:18.639Z,4.64
2023-04-02T19:05:53.975Z,4.57
2023-04-02T19:08:28.114Z,4.61
2023-04-02T19:10:58.843Z,4.42
2023-04-02T19:13:25.632Z,4.35
2023-04-02T19:16:06.530Z,4.40
2023-04-02T19:18:51.847Z,4.46
2023-04-02T19:21:18.289Z,4.34
2023-04-02T19:24:01.593Z,4.28
2023-04-02T19:26:36.501Z,4.12
2023-04-02T19:29:05.611Z,4.11
2023-04-02T19:31:32.129Z,4.17
2023-04-02T19:34:17.202Z,4.22
2023-04-02T19:36:47.268Z,4.26
2023-04-02T19:39:22.613Z,4.29
2023-04-02T19:41:53.217Z,4.26
2023-04-02T19:44:20.318Z,4.26
2023-04-02T19:46:47.155Z,4.24
2023-04-02T19:49:19.949Z,4.17
2023-04-02T19:51:46.417Z,4.13
2023-04-02T19:54:12.914Z,4.10
2023-04-02T19:56:39.733Z,4.05
2023-04-02T19:59:17.112Z,4.08
2023-04-02T20:01:44.397Z,4.08
2023-04-02T20:04:11.000Z,4.08
2023-04-02T20:06:37.798Z,4.05
2023-04-02T20:09:04.488Z,4.11
2023-04-02T20:11:31.066Z,4.10
2023-04-02T20:13:57.518Z,4.08
2023-04-02T20:16:24.106Z,4.05
2023-04-02T20:18:50.960Z,3.95
2023-04-02T20:21:17.482Z,3.88
2023-04-02T20:23:43.945Z,3.85
2023-04-02T20:26:10.588Z,3.80
2023-04-02T20:28:37.112Z,3.86
2023-04-02T20:31:11.137Z,3.86
2023-04-02T20:33:38.433Z,3.82
2023-04-02T20:36:06.795Z,3.92
2023-04-02T20:38:33.370Z,3.82
2023-04-02T20:41:00.827Z,3.85
2023-04-02T20:43:28.426Z,3.89
2023-04-02T20:45:59.621Z,3.91
2023-04-02T20:48:30.887Z,3.84
2023-04-02T20:50:57.368Z,3.85
2023-04-02T20:53:23.821Z,3.94
2023-04-02T20:55:50.337Z,4.06
2023-04-02T20:58:17.982Z,4.15
2023-04-02T21:00:44.859Z,4.24
2023-04-02T21:03:11.795Z,4.25
2023-04-02T21:05:45.008Z,4.31
2023-04-02T21:08:12.283Z,4.18
2023-04-02T21:10:39.313Z,4.00
2023-04-02T21:13:05.942Z,3.89
2023-04-02T21:15:32.622Z,3.85
2023-04-02T21:17:59.165Z,3.73
2023-04-02T21:20:26.664Z,3.78
2023-04-02T21:22:53.330Z,3.73
2023-04-02T21:25:20.233Z,3.65
2023-04-02T21:27:46.686Z,3.68
2023-04-02T21:30:13.223Z,3.73
2023-04-02T21:32:39.692Z,3.77
2023-04-02T21:35:07.606Z,3.70
2023-04-02T21:37:34.084Z,3.68
2023-04-02T21:40:00.600Z,3.69
2023-04-02T21:42:27.900Z,3.61
2023-04-02T21:44:55.966Z,3.60
2023-04-02T21:47:23.578Z,3.56
2023-04-02T21:49:50.110Z,3.51
2023-04-02T21:52:16.542Z,3.49
2023-04-02T21:54:42.971Z,3.49
2023-04-02T21:57:09.753Z,3.50
2023-04-02T21:59:36.193Z,3.48
2023-04-02T22:02:02.657Z,3.48
2023-04-02T22:04:30.719Z,3.52
2023-04-02T22:06:57.352Z,3.55
2023-04-02T22:09:25.079Z,3.62
2023-04-02T22:11:54.304Z,3.56
2023-04-02T22:14:21.314Z,3.55
2023-04-02T22:16:47.871Z,3.43
2023-04-02T22:19:15.989Z,3.32
2023-04-02T22:21:42.922Z,3.26
2023-04-02T22:24:12.469Z,3.28
2023-04-02T22:26:40.428Z,3.25
2023-04-02T22:29:07.748Z,3.26
2023-04-02T22:31:35.139Z,3.35
2023-04-02T22:34:02.707Z,3.27
2023-04-02T22:36:29.437Z,3.27
2023-04-02T22:38:56.662Z,3.31
2023-04-02T22:41:25.995Z,3.29
2023-04-02T22:43:52.604Z,3.32
2023-04-02T22:46:19.649Z,3.37
2023-04-02T22:48:46.868Z,3.28
2023-04-02T22:51:14.418Z,3.16
2023-04-02T22:53:41.673Z,3.11
2023-04-02T22:56:14.110Z,3.04
2023-04-02T22:58:40.695Z,2.99
2023-04-02T23:01:08.473Z,2.96
2023-04-02T23:03:35.548Z,3.02
2023-04-02T23:06:04.283Z,2.98
2023-04-02T23:08:30.954Z,3.01
2023-04-02T23:11:01.735Z,2.98
2023-04-02T23:13:28.210Z,3.01
2023-04-02T23:15:54.763Z,3.06
2023-04-02T23:18:21.450Z,3.17
2023-04-02T23:20:47.906Z,3.27
2023-04-02T23:23:14.354Z,3.23
2023-04-02T23:25:41.313Z,3.08
2023-04-02T23:28:07.761Z,3.04
2023-04-02T23:30:34.517Z,3.00
2023-04-02T23:33:02.711Z,3.07
2023-04-02T23:35:30.346Z,3.14
2023-04-02T23:37:57.033Z,3.21
2023-04-02T23:40:23.494Z,3.26
2023-04-02T23:42:49.925Z,3.33
2023-04-02T23:45:17.575Z,3.28
2023-04-02T23:47:44.367Z,3.26
2023-04-02T23:50:10.954Z,3.23
2023-04-02T23:52:37.668Z,3.18
2023-04-02T23:55:04.206Z,3.12
2023-04-02T23:57:30.943Z,3.11
2023-04-02T23:59:57.440Z,2.94
